Mustafa Sofuoglu — TCOJ7 — position and weather

sailwx.info

Track history (hours):
 
Tides and Currents Weather Stations Pressure Air Temp Water Temp Dewpoint Dewpoint Depression Visibility Wind Speed Wind Dir Waves Ship Positions

Mustafa Sofuoglu

Last reported at 2017-Jun-02 06:02 UTC. Time now 2017-Jun-23 10:36 UTC.
Position N 40°59' E 028°60'.
Warning: this ship's position is 21 days out of date.

Length 106 m; draft 7.3 m.

Type: Cargo ship. MMSI: 271000831.

Date/timePositionNaut miles runAvg speedWind from/ knotsBaromVisibWave heightAir tempDewpointWater temp
2017-Jun-02 06:02N 40°59' E 028°60'010.1
2017-Jun-02 06:00N 40°58' E 028°60'6 6.6
2017-Jun-02 05:06N 40°54' E 029°06'1 6.1
2017-Jun-02 04:58N 40°54' E 029°07'3 7.2
2017-Jun-02 04:30N 40°52' E 029°10'1 1.9
2017-Jun-02 03:59N 40°52' E 029°11'0 0.0
2017-Jun-02 03:23N 40°52' E 029°11'0 0.0
2017-Jun-02 02:59N 40°52' E 029°11'0 0.0
2017-Jun-02 02:29N 40°52' E 029°11'0 0.0
2017-Jun-02 01:59N 40°52' E 029°11'0 0.0
2017-Jun-02 01:29N 40°52' E 029°11'0 0.0
2017-Jun-02 00:47N 40°52' E 029°11'0 0.0
2017-Jun-02 00:29N 40°52' E 029°11'0 0.0
2017-Jun-01 23:47N 40°52' E 029°11'0 0.0
2017-Jun-01 23:23N 40°52' E 029°11'0 0.2
2017-Jun-01 22:59N 40°52' E 029°11'0 0.9
2017-Jun-01 22:30N 40°51' E 029°12'611.0
2017-Jun-01 22:00N 40°47' E 029°16'510.8
2017-Jun-01 21:30N 40°44' E 029°22'611.1
2017-Jun-01 20:58N 40°45' E 029°30'  
2017-May-28 07:14N 40°45' E 029°29'313.0
2017-May-28 06:59N 40°44' E 029°25'511.1
2017-May-28 06:30N 40°43' E 029°18'713.5
2017-May-28 06:00N 40°43' E 029°10'713.3
2017-May-28 05:30N 40°44' E 029°01'713.1
2017-May-28 05:00N 40°43' E 028°52'  
Track history (hours):
 
Tides and Currents Weather Stations Pressure Air Temp Water Temp Dewpoint Dewpoint Depression Visibility Wind Speed Wind Dir Waves Ship Positions

Mustafa Sofuoglu

Last reported at 2017-Jun-02 06:02 UTC. Time now 2017-Jun-23 10:36 UTC.
Position N 40°59' E 028°60'.
Warning: this ship's position is 21 days out of date.

Length 106 m; draft 7.3 m.

Type: Cargo ship. MMSI: 271000831.

Date/timePositionNaut miles runAvg speedWind from/ knotsBaromVisibWave heightAir tempDewpointWater temp
2017-Jun-02 06:02N 40°59' E 028°60'010.1
2017-Jun-02 06:00N 40°58' E 028°60'6 6.6
2017-Jun-02 05:06N 40°54' E 029°06'1 6.1
2017-Jun-02 04:58N 40°54' E 029°07'3 7.2
2017-Jun-02 04:30N 40°52' E 029°10'1 1.9
2017-Jun-02 03:59N 40°52' E 029°11'0 0.0
2017-Jun-02 03:23N 40°52' E 029°11'0 0.0
2017-Jun-02 02:59N 40°52' E 029°11'0 0.0
2017-Jun-02 02:29N 40°52' E 029°11'0 0.0
2017-Jun-02 01:59N 40°52' E 029°11'0 0.0
2017-Jun-02 01:29N 40°52' E 029°11'0 0.0
2017-Jun-02 00:47N 40°52' E 029°11'0 0.0
2017-Jun-02 00:29N 40°52' E 029°11'0 0.0
2017-Jun-01 23:47N 40°52' E 029°11'0 0.0
2017-Jun-01 23:23N 40°52' E 029°11'0 0.2
2017-Jun-01 22:59N 40°52' E 029°11'0 0.9
2017-Jun-01 22:30N 40°51' E 029°12'611.0
2017-Jun-01 22:00N 40°47' E 029°16'510.8
2017-Jun-01 21:30N 40°44' E 029°22'611.1
2017-Jun-01 20:58N 40°45' E 029°30'  
2017-May-28 07:14N 40°45' E 029°29'313.0
2017-May-28 06:59N 40°44' E 029°25'511.1
2017-May-28 06:30N 40°43' E 029°18'713.5
2017-May-28 06:00N 40°43' E 029°10'713.3
2017-May-28 05:30N 40°44' E 029°01'713.1
2017-May-28 05:00N 40°43' E 028°52'  

Dump ship's entire track history